Chennai, India
Current Conditions -  °F | °C
As of 6:10 PM on Saturday 25 Oct 2014 (Local Time) from VOMM Reporting Station
Scattered Clouds Scattered Clouds  
Wind Chill: 29°   Ceiling: Unl
Heat Index: 34°   Visibility: 4mi
Dew Point: 25°   Wind: 7mph
Humidity: 79%   Direction: 130°SE
Pressure: 29.83"   Gusts: NA
Location:  13.06°N, 80.25°E
Report Text: VOMM 251310Z 13006KT 6000 SCT020 SCT100 29/25 Q1010 NOSIG
Loading
Personal Weather Stations






























Interactive Weather Map New forecast layout! Learn more

10-Day Weather Forecast

Advertisements
Track Severe Weather on mobile